Nearby METAR Reports

 

CYUL - Montreal/Dorval, Quebec, Canada
Distance from station: ENE 6km
Updated: 10/22/2018 13:00 EDT
Mostly cloudy
Mostly cloudy
 Wind from WNW
Wind: WNW 13 km/h
Temperature: 5°C
Wind Chill: 2°C
Dew Point: -5°C
Humidity: 49%
Barometer: 1020 hPa
Clouds: Mostly cloudy
Visibility: 48 km
Cloud details: Few Clouds 1829 m
Partly cloudy 3048 m
Mostly cloudy 7620 m
2018/10/22 17:00 CYUL 221700Z 29007KT 30SM FEW060 SCT100 BKN250 05/M05 A3012 RMK SC1AC4CI2 SC TR SLP201
CWVQ - Ste Anne De Bell, Quebec, Canada
Distance from station: WSW 10km
Updated: 10/22/2018 13:00 EDT

 Wind from NW
Wind: NW 11 km/h
Temperature: 5°C
Wind Chill: 2°C
Dew Point: -4°C
Humidity: 53%
2018/10/22 17:00 CWVQ 221700Z AUTO 32006KT 05/M04 RMK AO1 SLP199 T00521041 58006
 
CWTA - Mc Tavish (aut), Quebec, Canada
Distance from station: ENE 18km
Updated: 10/22/2018 13:00 EDT

 Wind from SW
Wind: SW 6 km/h
Temperature: 4°C
Dew Point: -6°C
Humidity: 48%
2018/10/22 17:00 CWTA 221700Z AUTO 22003KT 04/M06 RMK AO1 SLP201 T00411062 58002
CYMX - Montreal/Mirabel, Quebec, Canada
Distance from station: NW 29km
Updated: 10/22/2018 13:00 EDT
Overcast
Overcast
 Wind from SW
Wind: SW 13 km/h
Temperature: 3°C
Wind Chill: -1°C
Dew Point: -6°C
Humidity: 52%
Barometer: 1020 hPa
Clouds: Overcast
Visibility: 72 km
Cloud details: Few Clouds 1524 m
Overcast 3048 m
2018/10/22 17:00 CYMX 221700Z 22007KT 200V270 45SM FEW050 OVC100 03/M06 A3012 RMK CU1AC7 SLP204
 
CYHU - Saint Hubert Arp, Quebec, Canada
Distance from station: ENE 31km
Updated: 10/22/2018 13:00 EDT
Overcast
Overcast
 Wind from W
Wind: W 13 km/h
Temperature: 4°C
Wind Chill: 1°C
Dew Point: -5°C
Humidity: 52%
Barometer: 1020 hPa
Clouds: Overcast
Visibility: 14 km
Cloud details: Partly cloudy 1402 m
Mostly cloudy 1676 m
Overcast 3353 m
2018/10/22 17:00 CYHU 221700Z AUTO 27007KT 200V290 9SM SCT046 BKN055 OVC110 04/M05 A3012 RMK SLP202
CWIT - St Clothilde (a, Quebec, Canada
Distance from station: SSE 33km
Updated: 10/22/2018 13:00 EDT

 Wind from W
Wind: W 4 km/h
Temperature: 5°C
Dew Point: -5°C
Humidity: 49%
2018/10/22 17:00 CWIT 221700Z AUTO 27002KT 05/M05 RMK AO1 SLP195 T00481049 58006
 
CWIZ - L'acadie, Quebec, Canada
Distance from station: ESE 41km
Updated: 10/22/2018 13:00 EDT

 Wind from WSW
Wind: WSW 9 km/h
Temperature: 4°C
Wind Chill: 2°C
Dew Point: -6°C
Humidity: 48%
2018/10/22 17:00 CWIZ 221700Z AUTO 25005KT 04/M06 RMK AO1 T00441056
CWHM - Varennes, Quebec, Canada
Distance from station: NE 45km
Updated: 10/25/2016 10:00 EDT
NOT Current

 Wind from W
Wind: W 19 km/h, Gust: 28 km/h
Temperature: 4°C
Wind Chill: 0°C
Dew Point: -2°C
Humidity: 65%
2016/10/25 14:00 CWHM 251400Z AUTO 28010G15KT 04/M02 RMK AO1 PK WND 28018/1302 T00391017
 
CWEW - L'assomption, Quebec, Canada
Distance from station: NE 50km
Updated: 10/22/2018 13:00 EDT

 Wind from SW
Wind: SW 7 km/h
Temperature: 4°C
Wind Chill: 2°C
Dew Point: -5°C
Humidity: 52%
2018/10/22 17:00 CWEW 221700Z AUTO 23004KT 04/M05 RMK AO1 SLP206 T00421051 58002
CWBZ - St Anicet, Quebec, Canada
Distance from station: SW 52km
Updated: 10/22/2018 13:00 EDT

 Wind from W
Wind: W 4 km/h
Temperature: 5°C
Dew Point: -5°C
Humidity: 49%
2018/10/22 17:00 CWBZ 221700Z AUTO 26002KT 05/M05 RMK AO1 SLP196 T00541050 57006
 
KFSO - Highgate, Vermont, USA
Distance from station: SE 79km
Updated: 10/22/2018 13:35 EDT
Overcast
Overcast
 Wind from calm
Wind: Calm
Temperature: 4°C
Dew Point: -6°C
Humidity: 48%
Barometer: 1020.3 hPa
Clouds: Overcast
Visibility: 16 km
Cloud details: Overcast 1524 m
2018/10/22 17:35 KFSO 221735Z AUTO 00000KT 10SM OVC050 04/M06 A3013 RMK AO2 T00421057
CMGB - Granby, Quebec, Canada
Distance from station: E 81km
Updated: 10/22/2018 13:30 EDT

 Wind from WSW
Wind: WSW 9 km/h
Temperature: 4°C
Wind Chill: 2°C
Dew Point: -6°C
Humidity: 48%
2018/10/22 17:30 CMGB 221730Z AUTO 25005KT 04/M06 RMK AO1 SLP201 T00411056 58001
 
CWJT - St Jovite (autob, Quebec, Canada
Distance from station: NW 88km
Updated: 10/22/2018 13:00 EDT

 
Temperature: 2°C
2018/10/22 17:00 CWJT 221700Z AUTO 02/ RMK AO1 SLP200 T0021 58001
CWFQ - Frelighsburg, Quebec, Canada
Distance from station: ESE 90km
Updated: 10/22/2018 13:00 EDT

 Wind from WSW
Wind: WSW 7 km/h
Temperature: 4°C
Wind Chill: 2°C
Dew Point: -6°C
Humidity: 48%
2018/10/22 17:00 CWFQ 221700Z AUTO 24004KT 04/M06 RMK AO1 SLP198 T00361059 58001
 
KPBG - Plattsburgh Afb, New York, USA
Distance from station: SSE 93km
Updated: 10/22/2018 06:53 EDT
NOT Current
Partly cloudy
Partly cloudy
 Wind from calm
Wind: Calm
Temperature: -1°C
Dew Point: -5°C
Humidity: 75%
Barometer: 1020 hPa
Clouds: Partly cloudy
Visibility: 16 km
Cloud details: Partly cloudy 1676 m
Partly cloudy 3658 m
2018/10/22 10:53 KPBG 221053Z AUTO 00000KT 10SM SCT055 SCT120 M01/M05 A3012 RMK AO2 SLP203 T10111050
KMSS - Massena, New York, USA
Distance from station: SW 100km
Updated: 10/22/2018 12:53 EDT
Overcast
Overcast
 Wind from calm
Wind: Calm
Temperature: 6°C
Dew Point: -2°C
Humidity: 57%
Barometer: 1020 hPa
Clouds: Overcast
Visibility: 16 km
Cloud details: Overcast 1981 m
2018/10/22 16:53 KMSS 221653Z AUTO 00000KT 10SM OVC065 06/M02 A3012 RMK AO2 SLP205 T00561017
 
CWBS - Lac St Pierre (a, Quebec, Canada
Distance from station: NE 106km
Updated: 10/22/2018 13:00 EDT

 Wind from SW
Wind: SW 24 km/h
Temperature: 3°C
Wind Chill: -2°C
Dew Point: -6°C
Humidity: 52%
2018/10/22 17:00 CWBS 221700Z AUTO 23013KT 03/M06 RMK AO1 T00281064
KBTV - Burlington, Vermont, USA
Distance from station: SSE 121km
Updated: 10/22/2018 12:54 EDT
Overcast
Overcast
 Wind from S
Wind: S 7 km/h
Temperature: 5°C
Wind Chill: 3°C
Dew Point: -6°C
Humidity: 45%
Barometer: 1020.3 hPa
Clouds: Overcast
Visibility: 16 km
Cloud details: Overcast 1280 m
2018/10/22 16:54 KBTV 221654Z 18004KT 10SM OVC042 05/M06 A3013 RMK AO2 SLP206 T00501056
 
KSLK - Saranac Lake, New York, USA
Distance from station: SSW 121km
Updated: 10/22/2018 12:51 EDT
Overcast
Overcast
 Wind from varies
Wind: varies 11 km/h
Temperature: 2°C
Wind Chill: -1°C
Dew Point: -2°C
Humidity: 75%
Barometer: 1017.9 hPa
Clouds: Overcast
Visibility: 16 km
Cloud details: Overcast 762 m
2018/10/22 16:51 KSLK 221651Z AUTO VRB06KT 10SM OVC025 02/M02 A3006 RMK AO2 SLP195 T00221022
CWNQ - Nicolet (autob), Quebec, Canada
Distance from station: NE 123km
Updated: 10/22/2018 13:00 EDT

 Wind from SW
Wind: SW 13 km/h
Temperature: 3°C
Wind Chill: -1°C
Dew Point: -7°C
Humidity: 48%
2018/10/22 17:00 CWNQ 221700Z AUTO 23007KT 03/M07 RMK AO1 SLP196 T00301069 50002
 
KMWN - Mount Washington, New Hampshire, USA
Distance from station: SE 237km
Updated: 10/22/2018 12:53 EDT
Light snow, Freezing, Fog, Overcast
Light snow, Freezing, Fog, Overcast
 Wind from W
Wind: W 63 km/h
Temperature: -11°C
Wind Chill: -24°C
Dew Point: -11°C
Humidity: 100%
Summary: Light snow, Freezing, Fog
Clouds: Overcast
Visibility: 2 km
Cloud details: Overcast 30 m
2018/10/22 16:53 KMWN 221653Z 28034KT 1/16SM -SN FZFG VV001 M11/M11 RMK VRY LGT ICG
CYVR - Vancouver Intl A, British Columbia, Canada
Distance from station: NW 3676km
Updated: 10/22/2018 13:00 EDT
Few Clouds
Few Clouds
 Wind from varies
Wind: varies 4 km/h
Temperature: 9°C
Dew Point: 9°C
Humidity: 100%
Barometer: 1015.9 hPa
Clouds: Few Clouds
Visibility: 48 km
Cloud details: Few Clouds 152 m
Few Clouds 7620 m
2018/10/22 17:00 CYVR 221700Z VRB02KT 30SM FEW005 FEW250 09/09 A3000 RMK CF1CI2 CF TR CONTRAILS SLP160